Staples Mill, Virginia
Current Conditions -  °F | °C
As of 11:54 AM on Sunday 23 Nov 2014 (Local Time) from KOFP Reporting Station
Clear Clear  
Wind Chill: 54°   Ceiling: Unl
Heat Index: 54°   Visibility: 10mi
Dew Point: 29°   Wind: 5mph
Humidity: 38%   Direction: 190°S
Pressure: 30.21"   Gusts: NA
Location:  37.6255°N, 77.4923°W
Report Text: KOFP 231654Z AUTO 19004KT 10SM CLR 12/M02 A3021 RMK AO2 SLP229 T01221017
Loading
Personal Weather Stations






























Interactive Weather Map New forecast layout! Learn more

10-Day Weather Forecast

Advertisements
Track Severe Weather on mobile